Time;durP1;ratioP1;P1;durP2;ratioP2;P2;SDS_P1;SDS_P2;PMS_P1;PMS_P2;Temp;Humidity;BMP_temperature;BMP_pressure;BME280_temperature;BME280_humidity;BME280_pressure;Samples;Min_cycle;Max_cycle;Signal;HPM_P1;HPM_P2
2023/01/26 00:01:43;;;;;;;;;;;2.80;1.00;;;;;;5036223;28;19913;-75
2023/01/26 00:04:17;;;;;;;;;;;2.80;1.00;;;;;;5036067;28;20352;-75
2023/01/26 00:09:46;;;;;;;;;;;2.80;1.00;;;;;;5023626;28;20322;-87
2023/01/26 00:12:11;;;;;;;;;;;2.80;1.00;;;;;;5036677;28;19913;-87
2023/01/26 00:14:49;;;;;;;;;;;2.80;1.00;;;;;;5019384;28;19916;-87
2023/01/26 00:17:15;;;;;;;;;;;2.70;1.00;;;;;;5031292;28;19953;-87
2023/01/26 00:20:11;;;;;;;;;;;2.70;1.00;;;;;;5036669;28;19913;-86
2023/01/26 00:22:37;;;;;;;;;;;2.70;1.00;;;;;;5036017;28;19917;-75
2023/01/26 00:25:12;;;;;;;;;;;2.70;1.00;;;;;;5018043;28;19963;-75
2023/01/26 00:27:37;;;;;;;;;;;2.60;1.00;;;;;;5035737;28;20507;-75
2023/01/26 00:30:18;;;;;;;;;;;2.60;1.00;;;;;;5035308;28;19916;-76
2023/01/26 00:32:44;;;;;;;;;;;2.60;1.00;;;;;;5030139;28;19913;-75
2023/01/26 00:35:09;;;;;;;;;;;2.70;1.00;;;;;;5035611;28;19932;-75
2023/01/26 00:37:35;;;;;;;;;;;2.70;1.00;;;;;;5035968;28;19917;-74
2023/01/26 00:40:01;;;;;;;;;;;2.70;1.00;;;;;;5035624;28;19917;-75
2023/01/26 00:42:30;;;;;;;;;;;2.70;1.00;;;;;;5035619;28;19909;-75
2023/01/26 00:44:55;;;;;;;;;;;2.70;1.00;;;;;;5035077;28;19909;-75
2023/01/26 00:47:21;;;;;;;;;;;2.60;1.00;;;;;;5034873;28;20280;-75
2023/01/26 00:49:46;;;;;;;;;;;2.50;1.00;;;;;;5035545;28;20269;-75
2023/01/26 00:52:23;;;;;;;;;;;2.50;1.00;;;;;;5035339;28;19917;-75
2023/01/26 00:54:49;;;;;;;;;;;2.50;1.00;;;;;;5035210;28;19909;-75
2023/01/26 00:57:15;;;;;;;;;;;2.40;1.00;;;;;;5035007;28;19917;-75
2023/01/26 00:59:40;;;;;;;;;;;2.30;1.00;;;;;;5017274;28;20252;-75
2023/01/26 01:02:11;;;;;;;;;;;2.30;1.00;;;;;;5035363;28;19909;-76
2023/01/26 01:04:37;;;;;;;;;;;2.30;1.00;;;;;;5034929;28;20451;-75
2023/01/26 01:07:03;;;;;;;;;;;2.20;1.00;;;;;;5035543;28;19913;-75
2023/01/26 01:09:28;;;;;;;;;;;2.20;1.00;;;;;;5035233;28;20252;-75
2023/01/26 01:11:54;;;;;;;;;;;2.30;1.00;;;;;;5025039;28;20344;-75
2023/01/26 01:14:24;;;;;;;;;;;2.30;1.00;;;;;;5019679;28;19909;-75
2023/01/26 01:16:53;;;;;;;;;;;2.40;1.00;;;;;;5034661;28;19915;-75
2023/01/26 01:19:21;;;;;;;;;;;2.50;1.00;;;;;;5034730;28;19909;-75
2023/01/26 01:21:47;;;;;;;;;;;2.50;1.00;;;;;;5017335;28;19923;-75
2023/01/26 01:24:17;;;;;;;;;;;2.50;1.00;;;;;;5034629;28;19913;-74
2023/01/26 01:26:48;;;;;;;;;;;2.50;1.00;;;;;;5034543;28;19913;-74
2023/01/26 01:29:13;;;;;;;;;;;2.50;1.00;;;;;;5034694;28;19913;-75
2023/01/26 01:31:40;;;;;;;;;;;2.40;1.00;;;;;;5034528;28;19916;-74
2023/01/26 01:34:18;;;;;;;;;;;2.30;1.00;;;;;;5034399;28;19959;-75
2023/01/26 01:36:43;;;;;;;;;;;2.30;1.00;;;;;;5027420;28;20008;-87
2023/01/26 01:39:09;;;;;;;;;;;2.40;1.00;;;;;;5034745;28;19944;-86
2023/01/26 01:44:37;;;;;;;;;;;2.40;1.00;;;;;;5034698;28;19979;-87
2023/01/26 01:47:25;;;;;;;;;;;2.40;1.00;;;;;;5035132;28;20356;-87
2023/01/26 01:49:51;;;;;;;;;;;2.30;1.00;;;;;;5035126;28;19999;-87
2023/01/26 01:52:24;;;;;;;;;;;2.30;1.00;;;;;;5017110;28;20339;-74
2023/01/26 01:55:09;;;;;;;;;;;2.30;1.00;;;;;;5032102;28;19913;-75
2023/01/26 01:57:46;;;;;;;;;;;2.20;1.00;;;;;;5033470;28;20322;-75
2023/01/26 02:00:13;;;;;;;;;;;2.20;1.00;;;;;;5029829;28;19919;-75
2023/01/26 02:02:40;;;;;;;;;;;2.20;1.00;;;;;;5033821;28;19913;-74
2023/01/26 02:05:23;;;;;;;;;;;2.20;1.00;;;;;;5028518;28;20280;-74
2023/01/26 02:07:49;;;;;;;;;;;2.20;1.00;;;;;;5033959;28;19913;-75
2023/01/26 02:10:24;;;;;;;;;;;2.20;1.00;;;;;;5028610;28;20276;-75
2023/01/26 02:13:00;;;;;;;;;;;2.30;1.00;;;;;;5032646;28;20352;-75
2023/01/26 02:15:26;;;;;;;;;;;2.30;1.00;;;;;;5033937;28;20364;-75
2023/01/26 02:17:53;;;;;;;;;;;2.30;1.00;;;;;;5033867;28;19913;-75
2023/01/26 02:20:27;;;;;;;;;;;2.30;1.00;;;;;;5033860;28;19913;-75
2023/01/26 02:23:11;;;;;;;;;;;2.30;1.00;;;;;;5032492;28;20040;-75
2023/01/26 02:26:03;;;;;;;;;;;2.30;1.00;;;;;;5031955;28;19924;-75
2023/01/26 02:28:30;;;;;;;;;;;2.30;1.00;;;;;;4928336;29;20356;-75
2023/01/26 02:30:56;;;;;;;;;;;2.30;1.00;;;;;;4934251;29;19949;-75
2023/01/26 02:33:25;;;;;;;;;;;2.40;1.00;;;;;;4913589;29;19970;-75
2023/01/26 02:35:54;;;;;;;;;;;2.40;1.00;;;;;;4921850;29;19915;-74
2023/01/26 02:38:37;;;;;;;;;;;2.40;1.00;;;;;;4934720;29;20354;-75
2023/01/26 02:44:07;;;;;;;;;;;2.30;1.00;;;;;;4934844;29;19921;-75
2023/01/26 02:46:33;;;;;;;;;;;2.30;1.00;;;;;;4934080;29;19986;-75
2023/01/26 02:52:06;;;;;;;;;;;2.40;1.00;;;;;;4934199;29;19946;-86
2023/01/26 03:00:54;;;;;;;;;;;2.20;1.00;;;;;;4925510;29;19942;-86
2023/01/26 03:06:54;;;;;;;;;;;2.20;1.00;;;;;;5026094;28;19964;-86
2023/01/26 03:09:24;;;;;;;;;;;2.20;1.00;;;;;;5019349;28;19909;-74
2023/01/26 03:11:50;;;;;;;;;;;2.20;1.00;;;;;;5027348;28;20007;-74
2023/01/26 03:14:18;;;;;;;;;;;2.10;1.00;;;;;;5037103;28;20483;-75
2023/01/26 03:16:48;;;;;;;;;;;2.00;1.00;;;;;;5037146;28;19913;-76
2023/01/26 03:28:48;;;;;;;;;;;2.00;1.00;;;;;;5028073;28;19955;-86
2023/01/26 03:31:48;;;;;;;;;;;2.00;1.00;;;;;;5026470;28;19914;-86
2023/01/26 03:34:30;;;;;;;;;;;1.90;1.00;;;;;;5020069;28;19973;-87
2023/01/26 03:36:55;;;;;;;;;;;1.90;1.00;;;;;;5037711;28;19917;-85
2023/01/26 03:56:59;;;;;;;;;;;1.90;1.00;;;;;;5018622;28;19976;-87
2023/01/26 03:59:37;;;;;;;;;;;1.80;1.00;;;;;;5031705;28;19944;-87
2023/01/26 04:10:31;;;;;;;;;;;1.90;1.00;;;;;;5028263;28;19959;-75
2023/01/26 04:21:33;;;;;;;;;;;1.90;1.00;;;;;;5025100;28;19991;-75
2023/01/26 04:24:00;;;;;;;;;;;1.90;1.00;;;;;;5036201;28;19924;-75
2023/01/26 04:26:42;;;;;;;;;;;1.90;1.00;;;;;;5035876;28;20004;-76
2023/01/26 04:29:14;;;;;;;;;;;2.00;1.00;;;;;;5017966;28;20011;-75
2023/01/26 04:31:40;;;;;;;;;;;2.00;1.00;;;;;;5035799;28;19949;-75
2023/01/26 04:34:08;;;;;;;;;;;2.00;1.00;;;;;;5017900;28;19920;-75
2023/01/26 04:36:36;;;;;;;;;;;1.90;1.00;;;;;;5035601;28;19909;-74
2023/01/26 04:39:18;;;;;;;;;;;1.90;1.00;;;;;;5036363;28;19910;-86
2023/01/26 04:44:48;;;;;;;;;;;2.00;1.00;;;;;;5036074;28;19932;-86
2023/01/26 04:56:31;;;;;;;;;;;2.00;1.00;;;;;;5035497;28;19978;-85
2023/01/26 04:59:23;;;;;;;;;;;2.00;1.00;;;;;;5026451;28;19996;-81
2023/01/26 05:01:54;;;;;;;;;;;2.00;1.00;;;;;;5028379;28;19924;-78
2023/01/26 05:04:20;;;;;;;;;;;2.00;1.00;;;;;;5034867;28;19952;-79
2023/01/26 05:06:54;;;;;;;;;;;2.00;1.00;;;;;;5035178;28;19940;-78
2023/01/26 05:09:19;;;;;;;;;;;2.00;1.00;;;;;;5017781;28;19959;-79
2023/01/26 05:15:00;;;;;;;;;;;2.00;1.00;;;;;;5034852;28;19936;-79
2023/01/26 05:17:48;;;;;;;;;;;2.00;1.00;;;;;;5035161;28;19909;-78
2023/01/26 05:20:18;;;;;;;;;;;2.00;1.00;;;;;;5034916;28;19917;-78
2023/01/26 05:23:18;;;;;;;;;;;2.00;1.00;;;;;;5034679;28;19917;-78
2023/01/26 05:26:06;;;;;;;;;;;2.00;1.00;;;;;;5034513;28;20008;-78
2023/01/26 05:28:36;;;;;;;;;;;2.00;1.00;;;;;;5023039;28;19958;-78
2023/01/26 05:31:01;;;;;;;;;;;2.00;1.00;;;;;;5033709;28;19910;-78
2023/01/26 05:33:29;;;;;;;;;;;2.00;1.00;;;;;;5034201;28;20580;-79
2023/01/26 05:36:06;;;;;;;;;;;2.00;1.00;;;;;;5034731;28;19909;-78
2023/01/26 05:38:36;;;;;;;;;;;2.00;1.00;;;;;;5034827;28;19909;-78
2023/01/26 05:41:07;;;;;;;;;;;2.00;1.00;;;;;;5033138;28;19915;-79
2023/01/26 05:43:36;;;;;;;;;;;2.00;1.00;;;;;;5027468;28;19909;-79
2023/01/26 05:49:06;;;;;;;;;;;2.10;1.00;;;;;;5034026;28;19920;-79
2023/01/26 05:51:36;;;;;;;;;;;2.00;1.00;;;;;;5016631;28;19910;-77
2023/01/26 05:54:01;;;;;;;;;;;2.00;1.00;;;;;;5034619;28;19920;-77
2023/01/26 05:56:27;;;;;;;;;;;2.00;1.00;;;;;;5034279;28;19909;-78
2023/01/26 05:58:54;;;;;;;;;;;2.00;1.00;;;;;;5034083;28;19917;-78
2023/01/26 06:04:23;;;;;;;;;;;2.10;1.00;;;;;;5033664;28;19935;-77
2023/01/26 06:06:55;;;;;;;;;;;2.00;1.00;;;;;;5033960;28;19999;-77
2023/01/26 06:09:30;;;;;;;;;;;2.00;1.00;;;;;;5027545;28;20037;-78
2023/01/26 06:12:00;;;;;;;;;;;2.00;1.00;;;;;;5032982;28;19916;-78
2023/01/26 06:14:48;;;;;;;;;;;2.00;1.00;;;;;;5016313;28;19909;-78
2023/01/26 06:17:24;;;;;;;;;;;2.10;1.00;;;;;;5034180;28;19913;-78
2023/01/26 06:20:06;;;;;;;;;;;2.00;1.00;;;;;;5033856;28;19917;-78
2023/01/26 06:22:48;;;;;;;;;;;2.00;1.00;;;;;;5029186;28;19913;-78
2023/01/26 06:28:20;;;;;;;;;;;2.00;1.00;;;;;;5029275;28;19932;-78
2023/01/26 06:30:58;;;;;;;;;;;2.00;1.00;;;;;;5016033;28;19913;-78
2023/01/26 06:33:42;;;;;;;;;;;1.90;1.00;;;;;;5033909;28;20430;-78
2023/01/26 06:36:09;;;;;;;;;;;1.80;1.00;;;;;;5009589;28;19909;-78
2023/01/26 06:38:36;;;;;;;;;;;1.80;1.00;;;;;;5015855;28;19916;-78
2023/01/26 06:41:06;;;;;;;;;;;1.80;1.00;;;;;;5033853;28;20019;-79
2023/01/26 06:43:36;;;;;;;;;;;1.80;1.00;;;;;;5020772;28;19995;-78
2023/01/26 06:46:06;;;;;;;;;;;1.80;1.00;;;;;;5033687;28;19916;-79
2023/01/26 06:48:48;;;;;;;;;;;1.80;1.00;;;;;;5033485;28;20372;-79
2023/01/26 06:51:36;;;;;;;;;;;1.90;1.00;;;;;;5015728;28;19920;-79
2023/01/26 06:54:24;;;;;;;;;;;1.80;1.00;;;;;;5015750;28;19913;-79
2023/01/26 06:57:00;;;;;;;;;;;1.80;1.00;;;;;;5033532;28;19909;-87
2023/01/26 07:02:28;;;;;;;;;;;1.90;1.00;;;;;;5033789;28;20434;-89
2023/01/26 07:04:54;;;;;;;;;;;1.90;1.00;;;;;;5016540;28;19913;-90
2023/01/26 07:07:30;;;;;;;;;;;1.90;1.00;;;;;;5034230;28;19909;-90
2023/01/26 07:10:00;;;;;;;;;;;1.90;1.00;;;;;;5016852;28;19919;-79
2023/01/26 07:12:36;;;;;;;;;;;1.90;1.00;;;;;;5032988;28;19923;-78
2023/01/26 07:15:06;;;;;;;;;;;1.90;1.00;;;;;;5023975;28;19996;-78
2023/01/26 07:17:42;;;;;;;;;;;1.80;1.00;;;;;;5015586;28;19909;-78
2023/01/26 07:20:24;;;;;;;;;;;1.80;1.00;;;;;;5033518;28;19916;-78
2023/01/26 07:23:00;;;;;;;;;;;1.80;1.00;;;;;;5015589;28;20066;-78
2023/01/26 07:25:26;;;;;;;;;;;1.80;1.00;;;;;;5015892;28;19913;-79
2023/01/26 07:28:12;;;;;;;;;;;1.80;1.00;;;;;;5015803;28;19931;-78
2023/01/26 07:31:00;;;;;;;;;;;1.80;1.00;;;;;;5027365;28;20000;-78
2023/01/26 07:33:31;;;;;;;;;;;1.80;1.00;;;;;;5032526;28;19963;-78
2023/01/26 07:36:18;;;;;;;;;;;1.70;1.00;;;;;;5033099;28;19913;-78
2023/01/26 07:38:48;;;;;;;;;;;1.60;1.00;;;;;;5021815;28;19924;-78
2023/01/26 07:41:18;;;;;;;;;;;1.50;1.00;;;;;;5016286;28;19913;-89
2023/01/26 07:43:54;;;;;;;;;;;1.50;1.00;;;;;;5016236;28;19960;-90
2023/01/26 07:49:24;;;;;;;;;;;1.40;1.00;;;;;;5033717;28;20375;-90
2023/01/26 07:52:12;;;;;;;;;;;1.40;1.00;;;;;;5016398;28;19920;-90
2023/01/26 07:54:48;;;;;;;;;;;1.40;1.00;;;;;;5032987;28;19917;-79
2023/01/26 07:57:42;;;;;;;;;;;1.40;1.00;;;;;;5036776;28;19913;-78
2023/01/26 08:00:12;;;;;;;;;;;1.40;1.00;;;;;;5031324;28;19909;-78
2023/01/26 08:03:06;;;;;;;;;;;1.40;1.00;;;;;;5032515;28;19913;-78
2023/01/26 08:05:32;;;;;;;;;;;1.40;1.00;;;;;;5024198;28;19924;-78
2023/01/26 08:08:18;;;;;;;;;;;1.30;1.00;;;;;;5034835;28;20320;-78
2023/01/26 08:10:48;;;;;;;;;;;1.30;1.00;;;;;;5024093;28;19913;-79
2023/01/26 08:13:24;;;;;;;;;;;1.30;1.00;;;;;;5036615;28;19921;-79
2023/01/26 08:15:54;;;;;;;;;;;1.40;1.00;;;;;;5036313;28;19916;-78
2023/01/26 08:18:30;;;;;;;;;;;1.40;1.00;;;;;;5036403;28;19910;-78
2023/01/26 08:21:18;;;;;;;;;;;1.40;1.00;;;;;;5036329;28;20016;-78
2023/01/26 08:23:49;;;;;;;;;;;1.40;1.00;;;;;;5036103;28;19917;-78
2023/01/26 08:26:31;;;;;;;;;;;1.40;1.00;;;;;;5023818;28;20310;-89
2023/01/26 08:29:00;;;;;;;;;;;1.50;1.00;;;;;;5039770;28;19961;-90
2023/01/26 08:31:48;;;;;;;;;;;1.50;1.00;;;;;;5036994;28;19910;-90
2023/01/26 08:34:30;;;;;;;;;;;1.50;1.00;;;;;;5005965;28;20004;-90
2023/01/26 08:37:24;;;;;;;;;;;1.50;1.00;;;;;;5019191;28;19937;-89
2023/01/26 08:43:24;;;;;;;;;;;1.60;1.00;;;;;;5027400;28;19924;-88
2023/01/26 08:45:54;;;;;;;;;;;1.50;1.00;;;;;;5016740;28;19964;-88
2023/01/26 08:48:48;;;;;;;;;;;1.50;1.00;;;;;;5007308;28;19909;-88
2023/01/26 08:51:24;;;;;;;;;;;1.40;1.00;;;;;;5018713;28;19913;-88
2023/01/26 08:54:00;;;;;;;;;;;1.30;1.00;;;;;;5018836;28;20011;-88
2023/01/26 08:56:30;;;;;;;;;;;1.40;1.00;;;;;;5019078;28;19909;-88
2023/01/26 08:59:18;;;;;;;;;;;1.50;1.00;;;;;;5018672;28;19909;-88
2023/01/26 09:10:52;;;;;;;;;;;1.60;1.00;;;;;;5023462;28;19917;-76
2023/01/26 09:13:30;;;;;;;;;;;1.60;1.00;;;;;;5035200;28;19913;-76
2023/01/26 09:15:56;;;;;;;;;;;1.70;1.00;;;;;;5035311;28;19909;-76
2023/01/26 09:18:30;;;;;;;;;;;1.70;1.00;;;;;;5027562;28;19919;-76
2023/01/26 09:21:03;;;;;;;;;;;1.80;1.00;;;;;;5034621;28;19913;-77
2023/01/26 09:23:48;;;;;;;;;;;1.90;1.00;;;;;;5035301;28;19959;-77
2023/01/26 09:32:48;;;;;;;;;;;2.00;1.00;;;;;;5035504;28;19920;-88
2023/01/26 09:41:48;;;;;;;;;;;2.00;1.00;;;;;;5035181;28;19978;-84
2023/01/26 09:47:25;;;;;;;;;;;2.00;1.00;;;;;;5029001;28;19984;-86
2023/01/26 09:50:18;;;;;;;;;;;2.00;1.00;;;;;;5017774;28;19975;-88
2023/01/26 09:55:48;;;;;;;;;;;2.10;1.00;;;;;;5035277;28;20284;-77
2023/01/26 09:58:24;;;;;;;;;;;2.20;1.00;;;;;;5034037;28;19917;-77
2023/01/26 10:00:52;;;;;;;;;;;2.10;1.00;;;;;;5033671;28;19971;-77
2023/01/26 10:03:24;;;;;;;;;;;1.90;1.00;;;;;;5025942;28;19909;-77
2023/01/26 10:05:54;;;;;;;;;;;1.90;1.00;;;;;;5034385;28;20273;-77
2023/01/26 10:08:22;;;;;;;;;;;2.00;1.00;;;;;;5033425;28;19917;-78
2023/01/26 10:11:18;;;;;;;;;;;2.00;1.00;;;;;;5034004;28;19936;-77
2023/01/26 10:13:52;;;;;;;;;;;2.10;1.00;;;;;;5033842;28;20387;-76
2023/01/26 10:16:18;;;;;;;;;;;2.10;1.00;;;;;;5033852;28;20008;-76
2023/01/26 10:19:05;;;;;;;;;;;2.10;1.00;;;;;;5030848;28;19956;-76
2023/01/26 10:21:49;;;;;;;;;;;2.10;1.00;;;;;;5029927;28;19919;-79
2023/01/26 10:24:24;;;;;;;;;;;2.00;1.00;;;;;;5029735;28;19913;-78
2023/01/26 10:27:00;;;;;;;;;;;2.00;1.00;;;;;;5034676;28;19913;-84
2023/01/26 10:29:42;;;;;;;;;;;1.90;1.00;;;;;;5017265;28;20340;-87
2023/01/26 10:32:30;;;;;;;;;;;2.00;1.00;;;;;;5023319;28;19913;-87
2023/01/26 10:47:36;;;;;;;;;;;2.00;1.00;;;;;;5034287;28;19999;-87
2023/01/26 10:50:36;;;;;;;;;;;1.90;1.00;;;;;;5016827;28;19909;-88
2023/01/26 10:56:10;;;;;;;;;;;2.00;1.00;;;;;;5024379;28;19920;-86
2023/01/26 10:58:54;;;;;;;;;;;2.00;1.00;;;;;;5016112;28;19983;-87
2023/01/26 11:01:26;;;;;;;;;;;1.90;1.00;;;;;;5016579;28;19995;-87
2023/01/26 11:04:06;;;;;;;;;;;1.90;1.00;;;;;;5020788;28;19913;-85
2023/01/26 11:09:54;;;;;;;;;;;1.80;1.00;;;;;;5031475;28;20425;-86
2023/01/26 11:12:20;;;;;;;;;;;1.80;1.00;;;;;;5023951;28;19909;-78
2023/01/26 11:15:14;;;;;;;;;;;1.80;1.00;;;;;;5033235;28;19916;-78
2023/01/26 11:17:46;;;;;;;;;;;1.70;1.00;;;;;;5024951;28;20322;-77
2023/01/26 11:20:36;;;;;;;;;;;1.80;1.00;;;;;;5012678;28;20040;-78
2023/01/26 11:23:18;;;;;;;;;;;1.70;1.00;;;;;;5021010;28;19920;-77
2023/01/26 11:26:06;;;;;;;;;;;1.70;1.00;;;;;;5033103;28;20269;-76
2023/01/26 11:38:00;;;;;;;;;;;1.90;1.00;;;;;;5036703;28;19968;-82
2023/01/26 11:40:36;;;;;;;;;;;1.80;1.00;;;;;;5019393;28;19916;-82
2023/01/26 11:43:12;;;;;;;;;;;1.90;1.00;;;;;;5037466;28;19909;-76
2023/01/26 11:46:00;;;;;;;;;;;1.90;1.00;;;;;;5023933;28;19995;-74
2023/01/26 11:48:36;;;;;;;;;;;1.90;1.00;;;;;;5036396;28;19909;-76
2023/01/26 11:51:18;;;;;;;;;;;1.90;1.00;;;;;;5036427;28;19971;-75
2023/01/26 11:53:48;;;;;;;;;;;2.00;1.00;;;;;;5036322;28;20398;-76
2023/01/26 11:56:17;;;;;;;;;;;2.10;1.00;;;;;;5018715;28;20276;-76
2023/01/26 12:02:18;;;;;;;;;;;2.10;1.00;;;;;;5036153;28;20330;-82
2023/01/26 12:04:44;;;;;;;;;;;2.10;1.00;;;;;;5012473;28;19971;-81
2023/01/26 12:07:13;;;;;;;;;;;2.20;1.00;;;;;;5033973;28;19983;-81
2023/01/26 12:10:00;;;;;;;;;;;2.30;1.00;;;;;;5035268;28;19916;-81
2023/01/26 12:13:00;;;;;;;;;;;2.40;1.00;;;;;;5000399;28;20253;-80
2023/01/26 12:18:41;;;;;;;;;;;2.50;1.00;;;;;;5033302;28;20383;-81
2023/01/26 12:21:25;;;;;;;;;;;2.50;1.00;;;;;;5024739;28;19914;-81
2023/01/26 12:24:01;;;;;;;;;;;2.50;1.00;;;;;;5036142;28;19962;-86
2023/01/26 12:29:46;;;;;;;;;;;2.50;1.00;;;;;;5034600;28;19979;-77
2023/01/26 12:32:42;;;;;;;;;;;2.50;1.00;;;;;;5035958;28;19915;-77
2023/01/26 12:35:31;;;;;;;;;;;2.50;1.00;;;;;;5031792;28;19913;-77
2023/01/26 12:38:03;;;;;;;;;;;2.50;1.00;;;;;;5025896;28;19979;-78
2023/01/26 12:40:43;;;;;;;;;;;2.40;1.00;;;;;;5035579;28;19917;-77
2023/01/26 12:43:36;;;;;;;;;;;2.40;1.00;;;;;;5036277;28;19909;-78
2023/01/26 12:46:26;;;;;;;;;;;2.50;1.00;;;;;;5024277;28;19921;-76
2023/01/26 12:48:59;;;;;;;;;;;2.50;1.00;;;;;;5027753;28;19920;-76
2023/01/26 12:51:46;;;;;;;;;;;2.40;1.00;;;;;;5027897;28;19913;-74
2023/01/26 12:54:12;;;;;;;;;;;2.50;1.00;;;;;;5035547;28;19917;-77
2023/01/26 12:56:46;;;;;;;;;;;2.50;1.00;;;;;;5035244;28;19958;-74
2023/01/26 12:59:20;;;;;;;;;;;2.50;1.00;;;;;;5023433;28;20051;-82
2023/01/26 13:04:49;;;;;;;;;;;2.70;1.00;;;;;;5035555;28;19915;-88
2023/01/26 13:10:22;;;;;;;;;;;2.70;1.00;;;;;;5035900;28;19916;-87
2023/01/26 13:13:00;;;;;;;;;;;2.70;1.00;;;;;;5018671;28;20360;-88
2023/01/26 13:15:27;;;;;;;;;;;2.70;1.00;;;;;;5017915;28;19992;-83
2023/01/26 13:18:00;;;;;;;;;;;2.70;1.00;;;;;;5022299;28;20060;-83
2023/01/26 13:23:37;;;;;;;;;;;2.80;1.00;;;;;;5035169;28;19936;-82
2023/01/26 13:26:36;;;;;;;;;;;2.80;1.00;;;;;;5022495;28;19909;-83
2023/01/26 13:29:24;;;;;;;;;;;2.80;1.00;;;;;;5035439;28;19916;-74
2023/01/26 13:32:20;;;;;;;;;;;2.80;1.00;;;;;;5034767;28;20280;-75
2023/01/26 13:34:59;;;;;;;;;;;2.90;1.00;;;;;;5034742;28;19920;-74
2023/01/26 13:37:43;;;;;;;;;;;3.00;1.00;;;;;;5022000;28;19913;-75
2023/01/26 13:40:30;;;;;;;;;;;3.10;1.00;;;;;;5034410;28;19913;-76
2023/01/26 13:43:30;;;;;;;;;;;3.10;1.00;;;;;;5028367;28;19910;-78
2023/01/26 13:46:20;;;;;;;;;;;3.10;1.00;;;;;;5025784;28;19909;-76
2023/01/26 13:49:01;;;;;;;;;;;3.10;1.00;;;;;;5018142;28;20044;-78
2023/01/26 13:51:48;;;;;;;;;;;3.10;1.00;;;;;;5030096;28;20006;-79
2023/01/26 13:54:18;;;;;;;;;;;3.10;1.00;;;;;;5034500;28;19920;-78
2023/01/26 13:57:05;;;;;;;;;;;3.10;1.00;;;;;;5028380;28;19917;-75
2023/01/26 13:59:32;;;;;;;;;;;3.10;1.00;;;;;;5006176;28;20331;-75
2023/01/26 14:02:00;;;;;;;;;;;3.10;1.00;;;;;;5034392;28;19917;-75
2023/01/26 14:04:27;;;;;;;;;;;3.00;1.00;;;;;;5032701;28;19913;-76
2023/01/26 14:06:55;;;;;;;;;;;3.00;1.00;;;;;;5033088;28;19948;-76
2023/01/26 14:09:21;;;;;;;;;;;3.00;1.00;;;;;;5034573;28;19910;-76
2023/01/26 14:11:52;;;;;;;;;;;3.00;1.00;;;;;;5034158;28;20290;-76
2023/01/26 14:14:26;;;;;;;;;;;3.00;1.00;;;;;;5034287;28;19933;-76
2023/01/26 14:16:56;;;;;;;;;;;3.00;1.00;;;;;;5033861;28;19909;-76
2023/01/26 14:19:22;;;;;;;;;;;2.90;1.00;;;;;;5034026;28;20375;-76
2023/01/26 14:21:48;;;;;;;;;;;2.80;1.00;;;;;;5033554;28;20000;-77
2023/01/26 14:24:14;;;;;;;;;;;2.70;1.00;;;;;;5029377;28;19917;-77
2023/01/26 14:26:40;;;;;;;;;;;2.70;1.00;;;;;;5034002;28;20268;-76
2023/01/26 14:32:18;;;;;;;;;;;2.70;1.00;;;;;;5033448;28;19916;-88
2023/01/26 14:35:12;;;;;;;;;;;2.70;1.00;;;;;;5034286;28;19924;-86
2023/01/26 14:37:42;;;;;;;;;;;2.60;1.00;;;;;;5015814;28;19995;-86
2023/01/26 14:43:21;;;;;;;;;;;2.50;1.00;;;;;;5034118;28;20335;-86
2023/01/26 14:46:12;;;;;;;;;;;2.40;1.00;;;;;;5016723;28;20376;-84
2023/01/26 14:49:06;;;;;;;;;;;2.40;1.00;;;;;;5032077;28;19917;-86
2023/01/26 14:51:54;;;;;;;;;;;2.40;1.00;;;;;;5029518;28;19909;-86
2023/01/26 14:54:49;;;;;;;;;;;2.30;1.00;;;;;;5030683;28;20011;-87
2023/01/26 14:57:20;;;;;;;;;;;2.40;1.00;;;;;;5024681;28;20003;-78
2023/01/26 14:59:53;;;;;;;;;;;2.40;1.00;;;;;;5016067;28;19909;-78
2023/01/26 15:02:20;;;;;;;;;;;2.40;1.00;;;;;;5033192;28;19909;-79
2023/01/26 15:05:00;;;;;;;;;;;2.40;1.00;;;;;;5036636;28;19921;-78
2023/01/26 15:07:54;;;;;;;;;;;2.50;1.00;;;;;;5037052;28;19988;-78
2023/01/26 15:13:28;;;;;;;;;;;2.50;1.00;;;;;;5027109;28;19924;-76
2023/01/26 15:16:04;;;;;;;;;;;2.50;1.00;;;;;;5037490;28;19921;-78
2023/01/26 15:18:36;;;;;;;;;;;2.50;1.00;;;;;;5036576;28;19913;-78
2023/01/26 15:21:05;;;;;;;;;;;2.50;1.00;;;;;;5037260;28;20356;-78
2023/01/26 15:23:35;;;;;;;;;;;2.50;1.00;;;;;;5037445;28;19913;-77
2023/01/26 15:26:05;;;;;;;;;;;2.60;1.00;;;;;;5036290;28;19913;-77
2023/01/26 15:28:31;;;;;;;;;;;2.50;1.00;;;;;;5037157;28;20280;-77
2023/01/26 15:31:00;;;;;;;;;;;2.60;1.00;;;;;;5037817;28;19959;-77
2023/01/26 15:33:38;;;;;;;;;;;2.60;1.00;;;;;;5037232;28;19913;-77
2023/01/26 15:36:38;;;;;;;;;;;2.60;1.00;;;;;;5036953;28;19913;-77
2023/01/26 15:39:14;;;;;;;;;;;2.60;1.00;;;;;;4921597;29;20388;-76
2023/01/26 15:41:56;;;;;;;;;;;2.60;1.00;;;;;;4929624;29;19911;-76
2023/01/26 15:44:22;;;;;;;;;;;2.60;1.00;;;;;;4935480;29;19915;-76
2023/01/26 15:47:24;;;;;;;;;;;2.50;1.00;;;;;;4929311;29;19910;-76
2023/01/26 15:50:00;;;;;;;;;;;2.60;1.00;;;;;;4932305;29;19915;-77
2023/01/26 15:52:30;;;;;;;;;;;2.50;1.00;;;;;;4925691;29;19927;-77
2023/01/26 15:54:56;;;;;;;;;;;2.50;1.00;;;;;;4930799;29;19915;-79
2023/01/26 15:57:30;;;;;;;;;;;2.50;1.00;;;;;;4929100;29;19911;-79
2023/01/26 15:59:56;;;;;;;;;;;2.50;1.00;;;;;;4918629;29;19918;-79
2023/01/26 16:02:25;;;;;;;;;;;2.40;1.00;;;;;;4921436;29;20291;-80
2023/01/26 16:04:51;;;;;;;;;;;2.40;1.00;;;;;;4924312;29;20397;-78
2023/01/26 16:07:18;;;;;;;;;;;2.50;1.00;;;;;;4917978;29;19919;-79
2023/01/26 16:10:06;;;;;;;;;;;2.50;1.00;;;;;;4917643;29;20259;-77
2023/01/26 16:12:43;;;;;;;;;;;2.50;1.00;;;;;;4927772;29;19919;-77
2023/01/26 16:15:23;;;;;;;;;;;2.50;1.00;;;;;;4997194;28;19909;-77
2023/01/26 16:17:49;;;;;;;;;;;2.40;1.00;;;;;;5036581;28;20467;-77
2023/01/26 16:20:18;;;;;;;;;;;2.40;1.00;;;;;;5036276;28;19920;-79
2023/01/26 16:22:48;;;;;;;;;;;2.40;1.00;;;;;;5018585;28;19956;-77
2023/01/26 16:25:24;;;;;;;;;;;2.40;1.00;;;;;;5036187;28;20323;-77
2023/01/26 16:27:55;;;;;;;;;;;2.50;1.00;;;;;;5036301;28;19916;-78
2023/01/26 16:30:30;;;;;;;;;;;2.40;1.00;;;;;;5036581;28;19964;-77
2023/01/26 16:32:56;;;;;;;;;;;2.40;1.00;;;;;;5018225;28;19913;-77
2023/01/26 16:35:30;;;;;;;;;;;2.30;1.00;;;;;;5036069;28;19932;-77
2023/01/26 16:38:00;;;;;;;;;;;2.20;1.00;;;;;;5036278;28;19909;-77
2023/01/26 16:40:26;;;;;;;;;;;2.30;1.00;;;;;;5018077;28;20280;-77
2023/01/26 16:42:52;;;;;;;;;;;2.30;1.00;;;;;;5036120;28;19959;-77
2023/01/26 16:45:22;;;;;;;;;;;2.30;1.00;;;;;;5036139;28;19909;-78
2023/01/26 16:47:51;;;;;;;;;;;2.30;1.00;;;;;;5022387;28;19914;-77
2023/01/26 16:50:18;;;;;;;;;;;2.20;1.00;;;;;;5035737;28;19995;-77
2023/01/26 16:52:49;;;;;;;;;;;2.20;1.00;;;;;;5035550;28;19924;-77
2023/01/26 16:55:15;;;;;;;;;;;2.20;1.00;;;;;;5035840;28;20027;-77
2023/01/26 16:57:54;;;;;;;;;;;2.20;1.00;;;;;;5030387;28;19913;-77
2023/01/26 17:00:36;;;;;;;;;;;2.20;1.00;;;;;;5023657;28;19916;-78
2023/01/26 17:03:24;;;;;;;;;;;2.10;1.00;;;;;;5031771;28;19914;-80
2023/01/26 17:05:50;;;;;;;;;;;2.10;1.00;;;;;;5032833;28;20318;-79
2023/01/26 17:08:30;;;;;;;;;;;2.00;1.00;;;;;;5034817;28;19952;-80
2023/01/26 17:11:11;;;;;;;;;;;2.10;1.00;;;;;;5025091;28;19955;-79
2023/01/26 17:13:42;;;;;;;;;;;2.10;1.00;;;;;;5017050;28;20392;-79
2023/01/26 17:16:17;;;;;;;;;;;2.10;1.00;;;;;;5034551;28;19914;-77
2023/01/26 17:18:54;;;;;;;;;;;2.10;1.00;;;;;;5035094;28;20008;-77
2023/01/26 17:21:30;;;;;;;;;;;2.10;1.00;;;;;;5035304;28;19940;-77
2023/01/26 17:23:57;;;;;;;;;;;2.10;1.00;;;;;;5034885;28;19918;-78
2023/01/26 17:26:23;;;;;;;;;;;2.10;1.00;;;;;;5034846;28;19929;-80
2023/01/26 17:28:54;;;;;;;;;;;2.10;1.00;;;;;;5003105;28;19914;-79
2023/01/26 17:31:21;;;;;;;;;;;2.10;1.00;;;;;;5035200;28;19940;-79
2023/01/26 17:33:47;;;;;;;;;;;2.10;1.00;;;;;;5028272;28;19985;-79
2023/01/26 17:36:24;;;;;;;;;;;2.00;1.00;;;;;;5034428;28;19962;-79
2023/01/26 17:39:00;;;;;;;;;;;2.00;1.00;;;;;;5034762;28;19932;-80
2023/01/26 17:41:30;;;;;;;;;;;2.10;1.00;;;;;;5034644;28;19909;-80
2023/01/26 17:43:56;;;;;;;;;;;2.10;1.00;;;;;;5016785;28;19916;-78
2023/01/26 17:46:22;;;;;;;;;;;2.10;1.00;;;;;;5030245;28;19913;-80
2023/01/26 17:48:48;;;;;;;;;;;2.10;1.00;;;;;;5034676;28;20372;-80
2023/01/26 17:51:45;;;;;;;;;;;2.10;1.00;;;;;;5034659;28;19913;-80
2023/01/26 17:54:12;;;;;;;;;;;2.10;1.00;;;;;;5034589;28;19913;-79
2023/01/26 17:56:49;;;;;;;;;;;2.10;1.00;;;;;;5034172;28;20007;-78
2023/01/26 17:59:48;;;;;;;;;;;2.10;1.00;;;;;;5033635;28;19921;-80
2023/01/26 18:02:18;;;;;;;;;;;2.00;1.00;;;;;;5034872;28;19909;-80
2023/01/26 18:04:48;;;;;;;;;;;2.00;1.00;;;;;;5011220;28;19920;-80
2023/01/26 18:10:17;;;;;;;;;;;2.10;1.00;;;;;;5028152;28;19916;-80
2023/01/26 18:12:42;;;;;;;;;;;2.00;1.00;;;;;;5033847;28;19917;-79
2023/01/26 18:15:24;;;;;;;;;;;1.90;1.00;;;;;;5034692;28;19909;-83
2023/01/26 18:20:53;;;;;;;;;;;2.00;1.00;;;;;;5034857;28;19963;-87
2023/01/26 18:32:28;;;;;;;;;;;1.90;1.00;;;;;;5030541;28;19931;-75
2023/01/26 18:34:53;;;;;;;;;;;1.90;1.00;;;;;;5033916;28;20400;-75
2023/01/26 18:37:36;;;;;;;;;;;1.90;1.00;;;;;;5033271;28;19936;-75
2023/01/26 18:40:03;;;;;;;;;;;2.00;1.00;;;;;;5033865;28;19909;-75
2023/01/26 18:42:29;;;;;;;;;;;2.00;1.00;;;;;;5033718;28;19967;-75
2023/01/26 18:45:00;;;;;;;;;;;2.00;1.00;;;;;;5032283;28;19920;-75
2023/01/26 18:47:36;;;;;;;;;;;2.00;1.00;;;;;;5020889;28;19914;-75